Time;durP1;ratioP1;P1;durP2;ratioP2;P2;SDS_P1;SDS_P2;PMS_P1;PMS_P2;Temp;Humidity;BMP_temperature;BMP_pressure;BME280_temperature;BME280_humidity;BME280_pressure;Samples;Min_cycle;Max_cycle;Signal;HPM_P1;HPM_P2
2022/04/15 00:01:31;;;;;;;13.77;5.93;;;;;;;15.08;30.53;95563.69;5028202;28;20455;-56
2022/04/15 00:03:58;;;;;;;11.13;5.40;;;;;;;15.15;30.67;95564.19;5028961;28;20447;-58
2022/04/15 00:06:25;;;;;;;9.07;5.47;;;;;;;14.62;31.66;95566.59;5028493;28;20447;-55
2022/04/15 00:08:52;;;;;;;13.13;5.87;;;;;;;14.79;31.55;95562.66;5028901;28;20435;-59
2022/04/15 00:11:19;;;;;;;12.40;5.33;;;;;;;15.09;31.03;95562.63;5028524;28;20459;-57
2022/04/15 00:13:47;;;;;;;13.83;6.03;;;;;;;15.31;30.61;95553.59;5028794;28;20986;-61
2022/04/15 00:16:14;;;;;;;12.97;5.70;;;;;;;15.32;31.27;95555.16;5028461;28;20475;-56
2022/04/15 00:18:42;;;;;;;8.63;6.10;;;;;;;15.03;31.84;95571.63;5028688;28;20470;-57
2022/04/15 00:21:09;;;;;;;11.87;6.70;;;;;;;14.73;32.92;95573.47;5028703;28;20443;-56
2022/04/15 00:23:36;;;;;;;12.10;7.63;;;;;;;15.35;31.18;95554.63;5028612;28;20448;-60
2022/04/15 00:26:03;;;;;;;18.83;8.03;;;;;;;15.38;31.51;95569.94;5028572;28;20451;-57
2022/04/15 00:28:31;;;;;;;19.03;6.97;;;;;;;15.43;31.39;95567.31;5028635;28;20455;-57
2022/04/15 00:30:58;;;;;;;12.47;7.20;;;;;;;15.67;30.88;95566.47;5027904;28;20482;-60
2022/04/15 00:33:25;;;;;;;13.30;6.70;;;;;;;16.12;30.80;95563.59;5028633;28;21053;-59
2022/04/15 00:35:52;;;;;;;14.37;6.87;;;;;;;15.56;31.20;95572.03;5028592;28;20436;-52
2022/04/15 00:38:19;;;;;;;12.37;6.77;;;;;;;14.54;33.27;95581.13;5028627;28;20472;-59
2022/04/15 00:40:46;;;;;;;14.60;7.20;;;;;;;14.32;33.47;95583.22;5028349;28;20927;-55
2022/04/15 00:43:14;;;;;;;11.40;7.00;;;;;;;14.56;33.49;95568.44;5028517;28;20546;-59
2022/04/15 00:45:46;;;;;;;14.23;7.63;;;;;;;14.50;33.54;95568.72;5028350;28;20448;-60
2022/04/15 00:48:14;;;;;;;15.97;6.70;;;;;;;14.85;32.95;95560.81;5029944;28;20776;-56
2022/04/15 00:50:41;;;;;;;13.77;7.20;;;;;;;14.83;33.57;95569.00;5032141;28;20460;-62
2022/04/15 00:53:10;;;;;;;12.83;6.77;;;;;;;15.39;32.65;95572.31;5032426;28;20601;-57
2022/04/15 00:55:40;;;;;;;19.50;8.13;;;;;;;14.95;33.05;95564.22;5031735;28;20499;-58
2022/04/15 00:58:09;;;;;;;13.67;7.60;;;;;;;15.78;32.06;95562.69;5032152;28;20447;-52
2022/04/15 01:00:37;;;;;;;13.77;6.93;;;;;;;15.66;32.43;95564.06;5031113;28;20970;-61
2022/04/15 01:03:05;;;;;;;16.27;7.10;;;;;;;15.73;32.25;95567.22;5032341;28;20443;-54
2022/04/15 01:05:34;;;;;;;12.43;7.53;;;;;;;15.35;32.67;95565.19;5031799;28;20471;-53
2022/04/15 01:08:03;;;;;;;18.33;7.73;;;;;;;15.15;32.59;95566.84;5032103;28;20442;-53
2022/04/15 01:10:35;;;;;;;12.60;7.23;;;;;;;14.45;33.48;95577.41;5031489;28;20471;-58
2022/04/15 01:13:06;;;;;;;13.83;7.73;;;;;;;14.30;34.06;95585.31;5031363;28;20456;-59
2022/04/15 01:15:50;;;;;;;16.13;7.37;;;;;;;13.61;35.01;95586.66;5031411;28;20519;-56
2022/04/15 01:18:17;;;;;;;16.30;7.73;;;;;;;13.34;36.16;95581.50;5031935;28;20471;-55
2022/04/15 01:20:50;;;;;;;14.83;7.27;;;;;;;13.76;35.19;95578.78;5031569;28;20546;-56
2022/04/15 01:23:18;;;;;;;15.93;7.43;;;;;;;13.73;35.00;95574.84;5031380;28;20428;-57
2022/04/15 01:25:45;;;;;;;16.53;8.40;;;;;;;13.61;35.53;95586.66;5031772;28;20455;-52
2022/04/15 01:28:16;;;;;;;23.60;8.60;;;;;;;12.95;36.81;95588.09;5031679;28;21049;-64
2022/04/15 01:30:44;;;;;;;14.50;8.13;;;;;;;13.54;36.04;95580.84;5031380;28;20495;-51
2022/04/15 01:33:12;;;;;;;12.87;7.73;;;;;;;14.19;34.74;95583.69;5031144;28;20444;-55
2022/04/15 01:35:41;;;;;;;12.30;7.70;;;;;;;14.64;33.69;95564.50;5031415;28;20446;-59
2022/04/15 01:38:12;;;;;;;16.53;8.00;;;;;;;14.89;33.38;95567.16;5031628;28;20997;-61
2022/04/15 01:40:39;;;;;;;15.23;8.00;;;;;;;15.05;33.63;95566.84;5031253;28;20482;-55
2022/04/15 01:43:06;;;;;;;17.03;7.80;;;;;;;15.08;32.95;95561.03;5030840;28;20958;-60
2022/04/15 01:45:34;;;;;;;22.20;8.23;;;;;;;15.17;33.20;95548.09;5029952;28;20510;-57
2022/04/15 01:48:01;;;;;;;17.13;7.93;;;;;;;14.29;34.61;95565.25;5031660;28;20866;-55
2022/04/15 01:50:28;;;;;;;17.43;8.23;;;;;;;14.17;34.83;95560.22;5031244;28;20583;-55
2022/04/15 01:52:56;;;;;;;15.03;8.23;;;;;;;14.47;33.90;95553.44;5031155;28;20502;-55
2022/04/15 01:55:23;;;;;;;15.77;7.27;;;;;;;14.63;33.69;95555.81;5030555;28;20994;-55
2022/04/15 01:57:50;;;;;;;20.27;8.17;;;;;;;14.90;34.16;95548.41;5031610;28;20432;-52
2022/04/15 02:00:17;;;;;;;22.90;8.53;;;;;;;14.97;33.72;95542.84;5045348;28;20474;-63
2022/04/15 02:02:44;;;;;;;17.27;7.67;;;;;;;14.95;33.55;95551.03;5030783;28;20424;-53
2022/04/15 02:05:11;;;;;;;15.73;7.80;;;;;;;14.85;33.63;95551.03;5029999;28;20444;-59
2022/04/15 02:07:38;;;;;;;13.27;7.73;;;;;;;15.20;32.76;95543.06;5031187;28;20458;-53
2022/04/15 02:10:06;;;;;;;19.43;7.63;;;;;;;15.30;33.07;95549.38;5030177;28;20483;-57
2022/04/15 02:12:33;;;;;;;19.50;7.50;;;;;;;15.09;33.30;95544.13;5030671;28;20994;-57
2022/04/15 02:15:01;;;;;;;12.90;7.20;;;;;;;15.20;33.29;95537.78;5029612;28;20792;-55
2022/04/15 02:17:28;;;;;;;16.03;7.63;;;;;;;15.00;33.53;95537.81;5030454;28;20506;-56
2022/04/15 02:19:55;;;;;;;20.50;8.00;;;;;;;15.05;33.17;95542.31;5030594;28;20467;-55
2022/04/15 02:22:22;;;;;;;13.10;7.83;;;;;;;15.04;33.59;95540.72;5030621;28;20521;-60
2022/04/15 02:24:49;;;;;;;13.83;8.17;;;;;;;15.03;33.57;95547.06;5029774;28;20505;-53
2022/04/15 02:27:15;;;;;;;15.67;7.77;;;;;;;14.94;33.28;95548.66;5030689;28;20446;-57
2022/04/15 02:29:42;;;;;;;17.97;8.27;;;;;;;14.75;34.21;95545.78;5029751;28;20483;-55
2022/04/15 02:32:09;;;;;;;15.27;7.77;;;;;;;14.89;33.83;95546.81;5030207;28;20444;-59
2022/04/15 02:34:36;;;;;;;20.63;8.97;;;;;;;14.97;33.21;95550.75;5029617;28;20444;-59
2022/04/15 02:37:04;;;;;;;18.90;8.97;;;;;;;14.34;34.31;95533.66;5030693;28;20447;-56
2022/04/15 02:39:32;;;;;;;19.77;9.50;;;;;;;14.51;34.35;95542.09;5030155;28;20440;-60
2022/04/15 02:42:00;;;;;;;25.93;10.20;;;;;;;14.77;33.81;95551.56;5030391;28;20443;-60
2022/04/15 02:44:29;;;;;;;17.20;10.27;;;;;;;14.80;34.01;95553.69;5029546;28;20452;-60
2022/04/15 02:46:59;;;;;;;21.97;10.60;;;;;;;15.09;33.03;95546.00;5030239;28;20463;-61
2022/04/15 02:49:27;;;;;;;22.47;12.00;;;;;;;14.90;33.49;95543.13;5029718;28;20538;-54
2022/04/15 02:51:55;;;;;;;25.17;12.93;;;;;;;14.97;33.07;95543.63;5030601;28;20515;-56
2022/04/15 02:54:24;;;;;;;21.63;12.73;;;;;;;14.90;33.29;95556.31;5029758;28;20458;-54
2022/04/15 02:56:51;;;;;;;26.80;12.03;;;;;;;14.77;33.45;95550.78;5029774;28;20502;-54
2022/04/15 02:59:18;;;;;;;16.33;9.70;;;;;;;14.33;33.60;95554.97;5029533;28;20443;-62
2022/04/15 03:01:45;;;;;;;10.97;7.10;;;;;;;14.17;33.29;95559.44;5029520;28;21033;-60
2022/04/15 03:04:12;;;;;;;15.13;6.93;;;;;;;13.82;33.53;95551.44;5029676;28;20535;-59
2022/04/15 03:06:39;;;;;;;11.33;5.87;;;;;;;13.94;33.22;95554.66;5029415;28;20502;-53
2022/04/15 03:09:07;;;;;;;11.20;6.40;;;;;;;13.97;33.48;95557.53;5029929;28;20428;-55
2022/04/15 03:11:37;;;;;;;11.03;5.83;;;;;;;14.18;33.03;95553.88;5028821;28;20545;-58
2022/04/15 03:14:05;;;;;;;10.23;5.20;;;;;;;14.01;33.23;95542.00;5028980;28;20438;-54
2022/04/15 03:16:33;;;;;;;12.70;5.10;;;;;;;13.97;32.97;95548.84;5028754;28;20538;-57
2022/04/15 03:19:00;;;;;;;10.50;5.30;;;;;;;13.92;33.34;95552.25;5029582;28;20447;-56
2022/04/15 03:21:27;;;;;;;8.70;5.30;;;;;;;13.90;33.61;95549.06;5029150;28;20458;-56
2022/04/15 03:23:55;;;;;;;8.77;4.80;;;;;;;13.90;33.41;95546.44;5029470;28;20484;-56
2022/04/15 03:26:22;;;;;;;10.37;4.93;;;;;;;13.93;33.10;95553.03;5029198;28;20822;-60
2022/04/15 03:28:49;;;;;;;8.73;4.87;;;;;;;13.74;33.65;95546.69;5029356;28;20440;-53
2022/04/15 03:31:16;;;;;;;6.70;4.90;;;;;;;14.00;32.80;95543.03;5029012;28;20489;-60
2022/04/15 03:33:44;;;;;;;12.10;7.00;;;;;;;14.26;33.85;95552.59;5029076;28;20456;-58
2022/04/15 03:36:11;;;;;;;11.07;6.13;;;;;;;14.36;33.41;95554.47;5028920;28;20450;-58
2022/04/15 03:38:39;;;;;;;9.83;5.20;;;;;;;14.46;32.35;95560.53;5029331;28;20517;-54
2022/04/15 03:41:06;;;;;;;11.50;5.23;;;;;;;13.96;33.22;95568.31;5029081;28;20460;-51
2022/04/15 03:43:33;;;;;;;16.03;5.77;;;;;;;13.61;33.67;95566.38;5029579;28;20468;-54
2022/04/15 03:46:00;;;;;;;12.27;5.50;;;;;;;13.95;33.21;95570.19;5028716;28;20447;-57
2022/04/15 03:48:27;;;;;;;18.47;5.30;;;;;;;13.47;33.97;95569.72;5028967;28;21024;-56
2022/04/15 03:50:54;;;;;;;19.33;5.70;;;;;;;13.39;34.04;95567.59;5028899;28;20476;-51
2022/04/15 03:53:22;;;;;;;11.60;5.80;;;;;;;13.48;34.02;95569.50;5029330;28;20879;-51
2022/04/15 03:55:50;;;;;;;13.37;5.60;;;;;;;13.86;36.60;95573.56;5028520;28;20566;-55
2022/04/15 03:58:18;;;;;;;14.60;6.00;;;;;;;13.75;34.67;95567.50;5029317;28;20450;-58
2022/04/15 04:00:45;;;;;;;21.70;6.10;;;;;;;13.60;34.64;95577.16;5027297;28;20467;-58
2022/04/15 04:03:14;;;;;;;19.17;6.90;;;;;;;13.92;34.87;95572.56;5029247;28;20951;-60
2022/04/15 04:05:41;;;;;;;15.10;5.70;;;;;;;13.61;34.15;95576.13;5028844;28;20450;-59
2022/04/15 04:08:08;;;;;;;16.33;6.07;;;;;;;13.07;35.14;95579.00;5029145;28;20490;-59
2022/04/15 04:10:35;;;;;;;17.87;6.93;;;;;;;12.71;35.71;95582.41;5028122;28;21025;-55
2022/04/15 04:13:02;;;;;;;20.67;6.77;;;;;;;12.75;35.60;95583.50;5029008;28;20439;-52
2022/04/15 04:15:31;;;;;;;17.33;7.40;;;;;;;13.12;34.89;95581.66;5028200;28;20954;-57
2022/04/15 04:17:59;;;;;;;29.83;7.40;;;;;;;13.35;34.64;95587.56;5028898;28;20483;-56
2022/04/15 04:20:26;;;;;;;18.63;6.77;;;;;;;13.90;33.82;95583.31;5028227;28;20447;-59
2022/04/15 04:22:54;;;;;;;20.17;7.20;;;;;;;14.16;33.97;95584.19;5028349;28;20446;-60
2022/04/15 04:25:21;;;;;;;24.10;6.97;;;;;;;14.30;34.62;95587.94;5032278;28;20875;-57
2022/04/15 04:27:49;;;;;;;33.17;7.47;;;;;;;14.51;34.74;95580.84;5032657;28;20476;-56
2022/04/15 04:30:16;;;;;;;35.80;8.67;;;;;;;14.33;35.10;95584.78;5032256;28;20454;-56
2022/04/15 04:32:50;;;;;;;36.97;8.40;;;;;;;14.18;35.41;95582.09;5033016;28;20894;-54
2022/04/15 04:35:21;;;;;;;36.03;8.60;;;;;;;14.09;35.89;95594.97;5032108;28;20496;-58
2022/04/15 04:37:49;;;;;;;41.47;9.60;;;;;;;14.20;35.57;95591.31;5032540;28;20427;-54
2022/04/15 04:40:17;;;;;;;47.27;10.80;;;;;;;14.60;34.79;95595.88;5032151;28;21035;-55
2022/04/15 04:42:45;;;;;;;62.77;18.40;;;;;;;14.23;34.52;95590.78;5032658;28;20448;-60
2022/04/15 04:45:12;;;;;;;47.83;16.00;;;;;;;14.18;35.87;95592.63;5032320;28;20448;-59
2022/04/15 04:47:41;;;;;;;47.57;16.50;;;;;;;13.90;37.02;95595.72;5032562;28;20821;-58
2022/04/15 04:50:09;;;;;;;107.53;62.20;;;;;;;14.07;36.26;95599.72;5031337;28;20440;-70
2022/04/15 04:52:37;;;;;;;42.00;19.57;;;;;;;14.31;35.84;95596.63;5032842;28;20490;-61
2022/04/15 04:55:05;;;;;;;57.93;19.93;;;;;;;14.39;35.32;95591.66;5031800;28;20447;-58
2022/04/15 04:57:33;;;;;;;55.03;20.03;;;;;;;14.25;35.28;95593.16;5032501;28;20447;-60
2022/04/15 04:59:59;;;;;;;49.17;19.50;;;;;;;14.29;35.32;95601.41;5032260;28;20798;-52
2022/04/15 05:02:26;;;;;;;61.83;21.17;;;;;;;14.46;34.60;95600.09;5032129;28;20428;-52
2022/04/15 05:04:53;;;;;;;56.40;21.77;;;;;;;14.40;35.33;95605.63;5031637;28;20467;-51
2022/04/15 05:07:20;;;;;;;52.03;20.83;;;;;;;14.69;34.88;95596.94;5032300;28;20451;-59
2022/04/15 05:09:47;;;;;;;64.60;23.53;;;;;;;14.71;35.12;95602.75;5031545;28;20444;-57
2022/04/15 05:12:14;;;;;;;52.80;23.10;;;;;;;14.87;34.35;95600.91;5031964;28;20483;-51
2022/04/15 05:14:41;;;;;;;50.30;20.40;;;;;;;15.04;34.19;95599.56;5031267;28;20443;-62
2022/04/15 05:17:08;;;;;;;50.20;17.40;;;;;;;15.20;33.57;95601.13;5031847;28;20487;-58
2022/04/15 05:19:42;;;;;;;37.97;12.53;;;;;;;15.27;33.95;95606.94;5031689;28;20439;-54
2022/04/15 05:22:09;;;;;;;21.93;9.23;;;;;;;15.75;33.12;95594.94;5031509;28;20519;-52
2022/04/15 05:24:37;;;;;;;11.27;5.73;;;;;;;15.83;32.13;95598.88;5031144;28;20455;-54
2022/04/15 05:27:07;;;;;;;19.20;7.33;;;;;;;15.49;32.95;95608.50;5032107;28;20436;-60
2022/04/15 05:29:34;;;;;;;94.70;54.57;;;;;;;15.40;34.19;95578.41;5031268;28;21140;-55
2022/04/15 05:32:03;;;;;;;46.57;22.47;;;;;;;15.40;34.66;95592.38;5031548;28;20488;-54
2022/04/15 05:34:30;;;;;;;22.57;12.50;;;;;;;15.66;34.19;95593.91;5030710;28;20456;-55
2022/04/15 05:36:56;;;;;;;24.97;11.23;;;;;;;15.69;33.42;95597.88;5029404;28;20424;-54
2022/04/15 05:39:24;;;;;;;24.40;10.87;;;;;;;15.86;33.30;95599.13;5028727;28;20522;-55
2022/04/15 05:41:50;;;;;;;21.33;10.27;;;;;;;15.57;33.24;95595.53;5029122;28;20439;-53
2022/04/15 05:44:17;;;;;;;19.80;9.97;;;;;;;15.63;33.75;95598.94;5030338;28;20457;-55
2022/04/15 05:46:44;;;;;;;21.60;10.43;;;;;;;15.67;33.71;95597.34;5030149;28;20436;-57
2022/04/15 05:49:15;;;;;;;19.83;11.80;;;;;;;15.63;34.23;95589.19;5030641;28;20483;-58
2022/04/15 05:51:43;;;;;;;30.93;10.43;;;;;;;15.84;33.90;95585.38;5030225;28;20483;-56
2022/04/15 05:54:10;;;;;;;30.83;10.93;;;;;;;15.81;33.18;95585.16;5030790;28;20447;-52
2022/04/15 05:56:37;;;;;;;17.23;10.23;;;;;;;15.88;32.99;95590.91;5030756;28;20451;-53
2022/04/15 05:59:05;;;;;;;19.50;10.20;;;;;;;15.50;33.42;95584.47;5031017;28;20448;-61
2022/04/15 06:01:32;;;;;;;22.03;9.53;;;;;;;15.81;32.70;95579.84;5030515;28;20448;-60
2022/04/15 06:03:59;;;;;;;13.97;8.67;;;;;;;16.00;32.57;95588.78;5031176;28;20461;-56
2022/04/15 06:06:26;;;;;;;24.07;10.33;;;;;;;16.08;32.86;95580.25;5030333;28;20447;-58
2022/04/15 06:08:53;;;;;;;14.43;8.60;;;;;;;16.13;32.73;95582.88;5031387;28;20444;-54
2022/04/15 06:11:21;;;;;;;21.33;9.23;;;;;;;16.27;32.70;95575.94;5030327;28;20499;-48
2022/04/15 06:13:49;;;;;;;20.57;9.07;;;;;;;16.40;32.26;95572.69;5031030;28;20444;-52
2022/04/15 06:16:22;;;;;;;20.33;8.53;;;;;;;16.77;31.29;95574.81;5030616;28;20456;-58
2022/04/15 06:18:49;;;;;;;19.57;9.10;;;;;;;16.62;32.08;95573.06;5030683;28;20440;-60
2022/04/15 06:21:36;;;;;;;23.90;9.73;;;;;;;16.96;31.33;95583.63;5030393;28;20934;-56
2022/04/15 06:24:03;;;;;;;20.03;8.80;;;;;;;16.85;31.18;95585.59;5030845;28;20442;-54
2022/04/15 06:26:30;;;;;;;16.33;8.77;;;;;;;16.76;31.44;95575.88;5030194;28;20849;-55
2022/04/15 06:28:58;;;;;;;21.67;9.07;;;;;;;16.96;31.18;95595.03;5031060;28;20462;-54
2022/04/15 06:31:25;;;;;;;19.50;8.83;;;;;;;16.70;31.39;95583.06;5030002;28;21025;-56
2022/04/15 06:33:52;;;;;;;21.63;9.90;;;;;;;16.94;30.35;95581.28;5030758;28;20509;-56
2022/04/15 06:36:20;;;;;;;20.70;8.97;;;;;;;16.89;31.09;95575.22;5030325;28;20451;-55
2022/04/15 06:38:47;;;;;;;21.10;9.73;;;;;;;17.13;31.72;95576.84;5030421;28;20420;-53
2022/04/15 06:41:14;;;;;;;19.17;10.40;;;;;;;17.29;31.51;95566.13;5030387;28;20424;-53
2022/04/15 06:43:41;;;;;;;20.83;10.57;;;;;;;17.06;30.80;95565.78;5030514;28;20448;-54
2022/04/15 06:46:08;;;;;;;21.73;11.87;;;;;;;17.44;31.01;95568.59;5028794;28;20428;-58
2022/04/15 06:48:35;;;;;;;17.60;10.40;;;;;;;17.12;29.58;95571.84;5030712;28;20452;-60
2022/04/15 06:51:03;;;;;;;22.90;10.33;;;;;;;17.32;30.57;95563.69;5030032;28;20499;-53
2022/04/15 06:53:30;;;;;;;24.87;10.90;;;;;;;17.55;30.61;95567.47;5030747;28;20463;-57
2022/04/15 06:55:57;;;;;;;21.77;10.93;;;;;;;17.63;31.07;95569.47;5029538;28;20459;-53
2022/04/15 06:58:24;;;;;;;17.63;9.73;;;;;;;17.57;30.76;95570.63;5030226;28;20516;-52
2022/04/15 07:00:51;;;;;;;21.90;10.43;;;;;;;17.77;30.81;95565.09;5029475;28;20444;-63
2022/04/15 07:03:18;;;;;;;23.50;11.10;;;;;;;18.00;30.31;95556.28;5029833;28;20428;-60
2022/04/15 07:05:46;;;;;;;33.73;11.80;;;;;;;18.07;29.58;95562.03;5028950;28;20450;-59
2022/04/15 07:08:13;;;;;;;22.47;12.47;;;;;;;18.11;30.15;95565.69;5030086;28;20531;-51
2022/04/15 07:10:41;;;;;;;25.23;12.40;;;;;;;17.56;28.94;95563.72;5029181;28;20963;-61
2022/04/15 07:13:08;;;;;;;27.00;13.03;;;;;;;18.22;29.38;95556.53;5030313;28;20768;-61
2022/04/15 07:15:35;;;;;;;26.57;13.70;;;;;;;18.33;29.47;95557.16;5029629;28;20447;-60
2022/04/15 07:18:05;;;;;;;36.23;14.10;;;;;;;18.65;30.04;95558.03;5029485;28;20502;-59
2022/04/15 07:20:34;;;;;;;29.10;12.57;;;;;;;18.39;28.67;95554.16;5029594;28;20471;-61
2022/04/15 07:23:02;;;;;;;26.23;13.33;;;;;;;18.43;28.77;95552.53;5029158;28;20466;-57
2022/04/15 07:25:30;;;;;;;29.73;13.13;;;;;;;18.44;28.88;95556.78;5028770;28;20451;-56
2022/04/15 07:27:56;;;;;;;25.13;12.17;;;;;;;18.68;28.10;95556.66;5029305;28;20436;-59
2022/04/15 07:30:24;;;;;;;27.27;12.90;;;;;;;18.83;29.22;95543.94;5029035;28;20438;-59
2022/04/15 07:32:54;;;;;;;19.10;11.80;;;;;;;18.73;29.68;95548.63;5029155;28;20470;-59
2022/04/15 07:35:21;;;;;;;21.97;11.00;;;;;;;18.95;28.91;95549.59;5029058;28;20469;-52
2022/04/15 07:37:47;;;;;;;26.50;11.27;;;;;;;19.03;27.13;95538.28;5029535;28;20500;-58
2022/04/15 07:40:14;;;;;;;26.73;11.57;;;;;;;19.26;28.10;95546.38;5028777;28;20456;-51
2022/04/15 07:42:41;;;;;;;18.03;11.03;;;;;;;19.10;27.62;95538.66;5029641;28;20438;-61
2022/04/15 07:45:09;;;;;;;21.60;10.00;;;;;;;19.36;27.24;95538.25;5028865;28;20451;-58
2022/04/15 07:47:36;;;;;;;20.63;10.17;;;;;;;19.33;27.14;95531.66;5029284;28;20542;-55
2022/04/15 07:50:16;;;;;;;16.20;9.77;;;;;;;19.68;27.07;95509.72;5028557;28;20475;-59
2022/04/15 07:52:42;;;;;;;20.73;10.07;;;;;;;19.59;26.33;95532.75;5029184;28;20553;-60
2022/04/15 07:55:10;;;;;;;20.40;9.17;;;;;;;19.98;26.92;95533.00;5028803;28;20971;-57
2022/04/15 07:57:36;;;;;;;15.97;8.70;;;;;;;19.99;26.04;95536.44;5028830;28;20459;-58
2022/04/15 08:00:04;;;;;;;15.43;7.90;;;;;;;20.23;26.32;95521.06;5028734;28;20452;-56
2022/04/15 08:02:37;;;;;;;15.87;7.67;;;;;;;20.24;25.57;95522.63;5028841;28;20435;-53
2022/04/15 08:05:04;;;;;;;10.67;6.87;;;;;;;20.54;25.91;95524.59;5028806;28;20479;-54
2022/04/15 08:07:31;;;;;;;15.80;6.23;;;;;;;20.62;25.40;95523.09;5028864;28;20435;-60
2022/04/15 08:09:58;;;;;;;12.00;5.87;;;;;;;19.81;25.46;95505.44;5028702;28;20547;-59
2022/04/15 08:12:25;;;;;;;11.70;6.97;;;;;;;20.44;26.30;95524.81;5028983;28;21017;-58
2022/04/15 08:14:59;;;;;;;14.37;5.60;;;;;;;20.68;25.64;95512.00;5028720;28;20502;-58
2022/04/15 08:17:26;;;;;;;13.10;5.80;;;;;;;20.48;24.49;95512.47;5028587;28;20476;-60
2022/04/15 08:19:53;;;;;;;13.80;6.27;;;;;;;20.44;25.30;95506.19;5027027;28;20900;-60
2022/04/15 08:22:20;;;;;;;9.20;6.10;;;;;;;20.33;24.60;95507.50;5027435;28;20444;-55
2022/04/15 08:24:47;;;;;;;9.77;5.60;;;;;;;20.71;25.42;95500.72;5028528;28;20889;-57
2022/04/15 08:27:14;;;;;;;10.83;6.43;;;;;;;20.85;26.02;95501.47;5028820;28;20440;-58
2022/04/15 08:29:42;;;;;;;7.70;5.40;;;;;;;20.91;25.67;95502.88;5028746;28;20550;-56
2022/04/15 08:32:09;;;;;;;25.67;16.93;;;;;;;21.32;26.59;95509.84;5029435;28;20486;-56
2022/04/15 08:34:37;;;;;;;10.03;6.63;;;;;;;21.14;24.80;95491.16;5029422;28;20451;-63
2022/04/15 08:37:04;;;;;;;7.10;4.33;;;;;;;21.53;24.28;95502.91;5029943;28;20443;-59
2022/04/15 08:39:31;;;;;;;13.60;6.47;;;;;;;21.40;24.19;95490.44;5029863;28;20478;-54
2022/04/15 08:41:59;;;;;;;7.17;4.77;;;;;;;21.57;24.29;95487.84;5029916;28;20444;-59
2022/04/15 08:44:26;;;;;;;9.07;5.17;;;;;;;21.66;23.15;95494.00;5028739;28;20459;-58
2022/04/15 08:46:53;;;;;;;8.97;4.00;;;;;;;21.94;22.79;95487.31;5028561;28;20428;-64
2022/04/15 08:49:22;;;;;;;7.63;5.03;;;;;;;21.78;23.28;95472.81;5028757;28;20542;-58
2022/04/15 08:51:50;;;;;;;7.37;4.00;;;;;;;21.72;24.00;95476.72;5028708;28;20463;-55
2022/04/15 08:54:19;;;;;;;8.97;4.50;;;;;;;22.11;23.51;95469.44;5028933;28;20451;-53
2022/04/15 08:56:46;;;;;;;6.83;4.20;;;;;;;22.03;23.28;95466.75;5028759;28;20486;-54
2022/04/15 08:59:15;;;;;;;8.83;4.60;;;;;;;22.09;23.59;95465.50;5028740;28;20432;-57
2022/04/15 09:01:43;;;;;;;7.60;4.13;;;;;;;22.17;23.98;95464.72;5028238;28;20886;-61
2022/04/15 09:04:11;;;;;;;8.97;4.20;;;;;;;21.87;23.00;95457.66;5028582;28;20887;-54
2022/04/15 09:06:41;;;;;;;13.10;4.60;;;;;;;22.36;23.36;95453.72;5028066;28;20446;-57
2022/04/15 09:09:14;;;;;;;10.73;4.43;;;;;;;22.42;23.48;95453.25;5029474;28;20485;-56
2022/04/15 09:11:45;;;;;;;9.83;4.13;;;;;;;22.52;22.47;95442.22;5031786;28;20474;-60
2022/04/15 09:14:13;;;;;;;8.90;4.13;;;;;;;22.41;23.27;95435.66;5032077;28;20224;-57
2022/04/15 09:16:46;;;;;;;5.20;3.73;;;;;;;22.72;22.67;95432.78;5031538;28;20989;-57
2022/04/15 09:19:14;;;;;;;6.40;3.77;;;;;;;23.10;23.06;95415.69;5032446;28;21049;-55
2022/04/15 09:21:50;;;;;;;9.10;4.13;;;;;;;23.13;22.72;95415.06;5031677;28;20647;-57
2022/04/15 09:24:17;;;;;;;5.77;3.43;;;;;;;23.45;23.15;95412.88;5031981;28;21053;-58
2022/04/15 09:26:48;;;;;;;8.27;3.83;;;;;;;23.40;22.08;95411.16;5031689;28;20524;-62
2022/04/15 09:29:15;;;;;;;3.40;2.90;;;;;;;23.64;22.77;95406.00;5032209;28;20209;-59
2022/04/15 09:31:44;;;;;;;5.50;3.57;;;;;;;23.85;22.52;95397.94;5031765;28;20213;-63
2022/04/15 09:34:12;;;;;;;10.17;3.60;;;;;;;23.59;22.13;95400.06;5031762;28;20530;-59
2022/04/15 09:36:39;;;;;;;8.13;3.93;;;;;;;23.94;22.36;95404.06;5031638;28;20197;-59
2022/04/15 09:39:11;;;;;;;10.00;3.30;;;;;;;23.96;21.72;95383.06;5031630;28;20276;-59
2022/04/15 09:41:40;;;;;;;10.93;3.90;;;;;;;24.10;21.94;95394.34;5031333;28;20209;-63
2022/04/15 09:44:11;;;;;;;9.97;3.43;;;;;;;24.47;21.38;95390.66;5031830;28;20216;-59
2022/04/15 09:46:41;;;;;;;8.73;3.37;;;;;;;24.63;21.23;95390.84;5031135;28;20587;-59
2022/04/15 09:49:10;;;;;;;5.77;3.10;;;;;;;24.45;21.38;95370.69;5032209;28;20747;-60
2022/04/15 09:51:47;;;;;;;5.60;3.43;;;;;;;24.86;20.06;95374.03;5031047;28;20197;-56
2022/04/15 09:54:24;;;;;;;10.03;3.40;;;;;;;25.36;20.77;95359.50;5031251;28;20212;-60
2022/04/15 09:56:57;;;;;;;9.77;3.20;;;;;;;25.45;20.75;95346.78;5030993;28;20217;-59
2022/04/15 09:59:28;;;;;;;16.03;4.30;;;;;;;25.27;20.21;95358.84;5031494;28;20263;-58
2022/04/15 10:02:04;;;;;;;6.37;3.37;;;;;;;25.57;20.13;95350.22;5031773;28;20267;-61
2022/04/15 10:04:33;;;;;;;7.93;3.50;;;;;;;25.65;20.29;95348.53;5031050;28;20589;-54
2022/04/15 10:07:04;;;;;;;11.77;4.13;;;;;;;26.05;19.69;95333.22;5031467;28;20631;-62
2022/04/15 10:09:37;;;;;;;4.40;3.03;;;;;;;26.29;19.44;95325.06;5035538;28;20193;-54
2022/04/15 10:12:05;;;;;;;5.70;2.90;;;;;;;26.74;17.88;95322.00;5036852;28;20310;-52
2022/04/15 10:14:33;;;;;;;6.90;3.20;;;;;;;26.71;18.41;95325.38;5032996;28;20197;-58
2022/04/15 10:17:01;;;;;;;4.07;3.00;;;;;;;27.02;18.69;95309.25;5030934;28;20275;-63
2022/04/15 10:19:29;;;;;;;8.93;3.97;;;;;;;26.32;17.47;95316.31;5030686;28;20193;-62
2022/04/15 10:21:57;;;;;;;7.97;3.40;;;;;;;26.44;18.70;95308.16;5031163;28;20667;-58
2022/04/15 10:24:24;;;;;;;6.63;3.73;;;;;;;26.94;18.98;95305.59;5030369;28;20200;-59
2022/04/15 10:26:58;;;;;;;8.83;3.07;;;;;;;26.87;18.16;95305.44;5030801;28;20272;-61
2022/04/15 10:29:25;;;;;;;4.67;2.93;;;;;;;27.00;17.83;95298.84;5030413;28;20269;-61
2022/04/15 10:31:54;;;;;;;8.13;3.20;;;;;;;26.94;17.52;95294.84;5030837;28;20189;-65
2022/04/15 10:34:22;;;;;;;5.57;3.87;;;;;;;27.02;17.45;95298.47;5030554;28;20212;-63
2022/04/15 10:36:54;;;;;;;10.10;3.57;;;;;;;27.40;16.85;95289.75;5030436;28;20209;-58
2022/04/15 10:39:26;;;;;;;6.90;3.43;;;;;;;26.92;17.34;95290.94;5029977;28;20621;-51
2022/04/15 10:41:57;;;;;;;10.17;3.20;;;;;;;27.07;16.84;95282.06;5030850;28;20205;-61
2022/04/15 10:44:24;;;;;;;7.53;3.67;;;;;;;27.23;18.61;95279.34;5030043;28;20190;-56
2022/04/15 10:46:51;;;;;;;11.13;3.87;;;;;;;27.47;18.00;95268.34;5030294;28;20201;-52
2022/04/15 10:49:30;;;;;;;7.93;4.53;;;;;;;27.74;18.27;95270.06;5030313;28;20297;-59
2022/04/15 10:52:17;;;;;;;6.13;3.33;;;;;;;27.96;18.06;95256.69;5030219;28;20331;-63
2022/04/15 10:54:48;;;;;;;10.10;3.80;;;;;;;27.87;16.72;95255.31;5029500;28;20220;-63
2022/04/15 10:57:17;;;;;;;9.23;4.20;;;;;;;27.42;16.93;95263.25;5029629;28;20201;-59
2022/04/15 11:02:50;;;;;;;10.93;4.23;;;;;;;27.95;17.72;95246.28;5030156;28;20668;-55
2022/04/15 11:05:43;;;;;;;9.70;4.83;;;;;;;28.15;17.46;95247.81;5028967;28;20196;-56
2022/04/15 11:08:13;;;;;;;12.70;4.20;;;;;;;28.52;17.98;95243.47;5024531;28;20633;-55
2022/04/15 11:10:42;;;;;;;12.67;4.83;;;;;;;28.80;18.34;95243.91;5029426;28;20185;-63
2022/04/15 11:13:25;;;;;;;15.70;4.43;;;;;;;29.20;17.58;95234.50;5030046;28;20243;-57
2022/04/15 11:15:58;;;;;;;10.67;5.10;;;;;;;29.54;17.48;95236.88;5029257;28;20676;-59
2022/04/15 11:18:53;;;;;;;7.67;3.90;;;;;;;28.37;16.29;95230.88;5029471;28;20225;-60
2022/04/15 11:21:27;;;;;;;14.17;4.03;;;;;;;29.48;17.39;95219.47;5029292;28;20189;-63
2022/04/15 11:23:59;;;;;;;9.37;4.07;;;;;;;30.29;16.37;95223.06;5029771;28;20245;-63
2022/04/15 11:26:28;;;;;;;7.70;4.03;;;;;;;30.34;15.06;95206.53;5029002;28;20288;-57
2022/04/15 11:28:57;;;;;;;7.97;4.03;;;;;;;30.50;15.96;95215.16;5029620;28;20250;-61
2022/04/15 11:31:25;;;;;;;8.93;4.27;;;;;;;30.50;15.15;95215.16;5028602;28;20696;-62
2022/04/15 11:33:53;;;;;;;12.47;4.00;;;;;;;30.43;15.28;95208.91;5029304;28;20334;-56